createdAt,value
2018-12-31T00:00:28.397Z,33.30
2018-12-31T00:02:55.982Z,33.30
2018-12-31T00:05:23.600Z,33.30
2018-12-31T00:07:51.261Z,33.30
2018-12-31T00:10:18.895Z,33.30
2018-12-31T00:12:46.484Z,33.30
2018-12-31T00:15:14.156Z,33.30
2018-12-31T00:17:41.751Z,33.30
2018-12-31T00:20:09.382Z,33.30
2018-12-31T00:22:37.050Z,33.30
2018-12-31T00:25:04.642Z,33.30
2018-12-31T00:27:32.283Z,33.30
2018-12-31T00:30:00.041Z,33.70
2018-12-31T00:32:27.763Z,33.40
2018-12-31T00:34:55.387Z,33.60
2018-12-31T00:37:22.969Z,33.50
2018-12-31T00:39:50.625Z,33.80
2018-12-31T00:42:18.303Z,33.70
2018-12-31T00:44:45.924Z,34.00
2018-12-31T00:47:13.645Z,34.00
2018-12-31T00:49:41.252Z,33.80
2018-12-31T00:52:08.936Z,34.00
2018-12-31T00:54:36.581Z,33.80
2018-12-31T00:57:04.169Z,33.80
2018-12-31T00:59:31.772Z,34.00
2018-12-31T01:01:59.430Z,33.90
2018-12-31T01:04:27.152Z,33.90
2018-12-31T01:06:54.849Z,33.60
2018-12-31T01:09:22.546Z,33.70
2018-12-31T01:11:50.235Z,33.50
2018-12-31T01:14:17.965Z,33.80
2018-12-31T01:16:45.615Z,33.70
2018-12-31T01:19:13.341Z,33.60
2018-12-31T01:21:41.019Z,33.40
2018-12-31T01:24:08.709Z,33.40
2018-12-31T01:26:36.363Z,33.50
2018-12-31T01:29:04.013Z,33.60
2018-12-31T01:31:31.711Z,33.40
2018-12-31T01:33:59.355Z,33.40
2018-12-31T01:36:26.956Z,33.30
2018-12-31T01:38:54.554Z,33.30
2018-12-31T01:41:22.244Z,33.30
2018-12-31T01:43:49.902Z,33.30
2018-12-31T01:46:17.518Z,33.40
2018-12-31T01:48:45.196Z,33.30
2018-12-31T01:51:12.868Z,33.40
2018-12-31T01:53:40.539Z,33.30
2018-12-31T01:56:08.300Z,33.30
2018-12-31T01:58:36.005Z,34.10
2018-12-31T02:01:03.622Z,34.10
2018-12-31T02:03:31.300Z,34.10
2018-12-31T02:05:58.953Z,34.20
2018-12-31T02:08:26.612Z,34.40
2018-12-31T02:10:54.271Z,34.50
2018-12-31T02:13:21.961Z,34.60
2018-12-31T02:15:49.625Z,35.00
2018-12-31T02:18:17.350Z,35.00
2018-12-31T02:20:45.013Z,35.00
2018-12-31T02:23:12.636Z,35.20
2018-12-31T02:25:40.330Z,35.10
2018-12-31T02:28:08.041Z,35.40
2018-12-31T02:30:35.710Z,35.30
2018-12-31T02:33:03.359Z,34.80
2018-12-31T02:35:31.040Z,35.00
2018-12-31T02:37:58.719Z,35.10
2018-12-31T02:40:26.392Z,35.00
2018-12-31T02:42:54.076Z,35.00
2018-12-31T02:45:21.737Z,35.10
2018-12-31T02:47:49.391Z,34.80
2018-12-31T02:50:17.049Z,35.20
2018-12-31T02:52:44.712Z,35.00
2018-12-31T02:55:12.467Z,35.10
2018-12-31T02:57:40.063Z,35.10
2018-12-31T03:00:07.663Z,35.30
2018-12-31T03:02:35.370Z,35.10
2018-12-31T03:05:03.183Z,35.30
2018-12-31T03:07:30.762Z,35.00
2018-12-31T03:09:58.404Z,34.80
2018-12-31T03:12:26.060Z,35.10
2018-12-31T03:14:53.862Z,35.20
2018-12-31T03:17:21.553Z,34.80
2018-12-31T03:19:49.171Z,34.90
2018-12-31T03:22:16.843Z,35.20
2018-12-31T03:24:44.455Z,34.80
2018-12-31T03:27:12.081Z,35.10
2018-12-31T03:29:39.787Z,34.70
2018-12-31T03:32:07.378Z,34.60
2018-12-31T03:34:35.010Z,34.70
2018-12-31T03:37:02.677Z,34.70
2018-12-31T03:39:30.276Z,34.80
2018-12-31T03:41:57.999Z,34.90
2018-12-31T03:44:27.156Z,34.80
2018-12-31T03:46:54.899Z,34.70
2018-12-31T03:49:22.560Z,34.80
2018-12-31T03:51:50.223Z,34.70
2018-12-31T03:54:17.818Z,34.90
2018-12-31T03:56:45.519Z,34.90
2018-12-31T03:59:13.107Z,34.70
2018-12-31T04:01:40.751Z,34.80
2018-12-31T04:04:08.374Z,34.70
2018-12-31T04:06:36.017Z,34.60
2018-12-31T04:09:04.851Z,34.70
2018-12-31T04:11:32.503Z,34.90
2018-12-31T04:14:00.187Z,34.70
2018-12-31T04:16:27.866Z,35.00
2018-12-31T04:18:55.463Z,35.10
2018-12-31T04:21:23.207Z,35.00
2018-12-31T04:23:50.793Z,34.80
2018-12-31T04:26:18.384Z,34.90
2018-12-31T04:28:46.108Z,35.60
2018-12-31T04:31:13.710Z,34.90
2018-12-31T04:33:41.311Z,34.90
2018-12-31T04:36:08.979Z,34.80
2018-12-31T04:38:36.581Z,34.80
2018-12-31T04:41:04.279Z,35.00
2018-12-31T04:43:31.970Z,34.80
2018-12-31T04:45:59.609Z,34.90
2018-12-31T04:48:27.263Z,35.10
2018-12-31T04:50:54.953Z,34.80
2018-12-31T04:53:22.655Z,34.70
2018-12-31T04:55:50.259Z,34.90
2018-12-31T04:58:22.980Z,35.10
2018-12-31T05:00:47.223Z,34.80
2018-12-31T05:03:14.827Z,35.10
2018-12-31T05:05:42.486Z,34.60
2018-12-31T05:08:10.121Z,34.60
2018-12-31T05:10:37.780Z,34.40
2018-12-31T05:13:05.520Z,34.40
2018-12-31T05:15:33.216Z,34.70
2018-12-31T05:18:00.861Z,34.50
2018-12-31T05:20:28.514Z,34.50
2018-12-31T05:22:56.171Z,34.70
2018-12-31T05:25:23.800Z,34.50
2018-12-31T05:27:51.472Z,34.50
2018-12-31T05:30:19.140Z,34.60
2018-12-31T05:32:46.734Z,34.60
2018-12-31T05:35:15.475Z,34.30
2018-12-31T05:37:43.176Z,34.50
2018-12-31T05:40:10.885Z,34.30
2018-12-31T05:42:38.612Z,34.50
2018-12-31T05:45:06.356Z,34.60
2018-12-31T05:47:34.015Z,34.30
2018-12-31T05:50:01.668Z,34.50
2018-12-31T05:52:29.286Z,34.30
2018-12-31T05:54:56.961Z,34.40
2018-12-31T05:57:24.606Z,34.20
2018-12-31T05:59:52.326Z,34.20
2018-12-31T06:02:19.934Z,34.30
2018-12-31T06:04:47.607Z,34.40
2018-12-31T06:07:15.286Z,34.40
2018-12-31T06:09:42.943Z,34.50
2018-12-31T06:12:10.611Z,34.20
2018-12-31T06:14:38.296Z,34.40
2018-12-31T06:17:05.985Z,34.60
2018-12-31T06:19:33.727Z,34.10
2018-12-31T06:22:01.395Z,34.40
2018-12-31T06:24:29.127Z,33.80
2018-12-31T06:26:56.815Z,33.90
2018-12-31T06:29:24.493Z,33.90
2018-12-31T06:31:52.215Z,33.90
2018-12-31T06:34:19.900Z,33.80
2018-12-31T06:36:47.503Z,33.60
2018-12-31T06:39:15.230Z,33.40
2018-12-31T06:41:42.849Z,33.80
2018-12-31T06:44:10.465Z,33.70
2018-12-31T06:46:38.196Z,33.90
2018-12-31T06:49:05.802Z,33.90
2018-12-31T06:51:33.425Z,33.80
2018-12-31T06:54:01.153Z,33.80
2018-12-31T06:56:28.814Z,33.80
2018-12-31T06:58:56.458Z,33.90
2018-12-31T07:01:24.161Z,33.70
2018-12-31T07:03:51.836Z,33.60
2018-12-31T07:06:19.580Z,34.40
2018-12-31T07:08:47.237Z,35.20
2018-12-31T07:11:14.870Z,35.60
2018-12-31T07:13:42.460Z,35.10
2018-12-31T07:16:10.198Z,34.90
2018-12-31T07:18:37.859Z,34.50
2018-12-31T07:21:05.486Z,34.40
2018-12-31T07:23:33.207Z,34.40
2018-12-31T07:26:00.809Z,34.00
2018-12-31T07:28:28.392Z,34.10
2018-12-31T07:30:56.088Z,33.80
2018-12-31T07:33:23.774Z,33.80
2018-12-31T07:35:51.665Z,33.50
2018-12-31T07:38:19.408Z,33.40
2018-12-31T07:40:47.056Z,33.50
2018-12-31T07:43:14.771Z,33.50
2018-12-31T07:45:42.377Z,33.50
2018-12-31T07:48:10.064Z,33.60
2018-12-31T07:50:37.704Z,33.90
2018-12-31T07:53:05.328Z,34.10
2018-12-31T07:55:33.024Z,33.90
2018-12-31T07:58:00.702Z,34.00
2018-12-31T08:00:28.361Z,33.90
2018-12-31T08:02:56.010Z,34.00
2018-12-31T08:05:23.720Z,34.20
2018-12-31T08:07:51.362Z,34.10
2018-12-31T08:10:19.047Z,34.00
2018-12-31T08:12:46.709Z,33.40
2018-12-31T08:15:14.316Z,33.40
2018-12-31T08:17:41.940Z,33.40
2018-12-31T08:20:09.675Z,33.50
2018-12-31T08:22:37.280Z,33.40
2018-12-31T08:25:05.007Z,33.90
2018-12-31T08:27:32.684Z,33.90
2018-12-31T08:30:00.358Z,33.30
2018-12-31T08:32:28.023Z,33.70
2018-12-31T08:34:55.758Z,33.60
2018-12-31T08:37:23.478Z,34.10
2018-12-31T08:39:51.207Z,34.10
2018-12-31T08:42:18.826Z,34.00
2018-12-31T08:44:46.498Z,34.00
2018-12-31T08:47:14.115Z,34.20
2018-12-31T08:49:42.482Z,34.60
2018-12-31T08:52:10.115Z,35.20
2018-12-31T08:54:37.768Z,35.50
2018-12-31T08:57:05.395Z,34.70
2018-12-31T08:59:33.064Z,33.30
2018-12-31T09:02:01.607Z,33.30
2018-12-31T09:04:29.433Z,33.30
2018-12-31T09:06:57.031Z,33.30
2018-12-31T09:09:24.665Z,33.30
2018-12-31T09:11:52.297Z,32.90
2018-12-31T09:14:19.995Z,32.50
2018-12-31T09:16:47.627Z,33.00
2018-12-31T09:19:15.242Z,33.20
2018-12-31T09:21:42.944Z,33.20
2018-12-31T09:24:10.664Z,32.60
2018-12-31T09:26:38.352Z,32.60
2018-12-31T09:29:06.041Z,32.70
2018-12-31T09:31:33.802Z,33.20
2018-12-31T09:34:01.469Z,33.20
2018-12-31T09:36:32.472Z,32.50
2018-12-31T09:39:00.399Z,32.40
2018-12-31T09:41:31.193Z,32.30
2018-12-31T09:43:59.275Z,32.20
2018-12-31T09:46:27.599Z,32.30
2018-12-31T09:48:55.215Z,31.80
2018-12-31T09:51:22.840Z,31.50
2018-12-31T09:53:50.563Z,31.20
2018-12-31T09:56:18.151Z,31.40
2018-12-31T09:58:45.773Z,31.20
2018-12-31T10:01:13.428Z,31.10
2018-12-31T10:03:41.120Z,30.70
2018-12-31T10:06:08.773Z,30.60
2018-12-31T10:08:36.435Z,31.30
2018-12-31T10:11:04.051Z,31.00
2018-12-31T10:13:31.688Z,31.10
2018-12-31T10:15:59.425Z,32.30
2018-12-31T10:18:27.087Z,32.80
2018-12-31T10:20:54.712Z,33.30
2018-12-31T10:23:22.363Z,33.30
2018-12-31T10:25:49.976Z,33.30
2018-12-31T10:28:17.752Z,33.30
2018-12-31T10:30:45.456Z,33.40
2018-12-31T10:33:13.119Z,33.40
2018-12-31T10:35:40.803Z,33.20
2018-12-31T10:38:08.470Z,32.60
2018-12-31T10:40:36.068Z,32.90
2018-12-31T10:43:03.681Z,32.60
2018-12-31T10:45:31.469Z,32.70
2018-12-31T10:47:59.156Z,32.80
2018-12-31T10:50:26.845Z,33.20
2018-12-31T10:52:54.502Z,32.90
2018-12-31T10:55:22.144Z,31.90
2018-12-31T10:57:49.827Z,32.10
2018-12-31T11:00:17.623Z,32.20
2018-12-31T11:02:45.225Z,32.00
2018-12-31T11:05:12.955Z,32.10
2018-12-31T11:07:40.640Z,32.10
2018-12-31T11:10:08.309Z,31.80
2018-12-31T11:12:35.937Z,32.00
2018-12-31T11:15:04.269Z,31.70
2018-12-31T11:17:31.945Z,32.00
2018-12-31T11:19:59.674Z,32.20
2018-12-31T11:22:27.362Z,32.20
2018-12-31T11:24:56.943Z,32.10
2018-12-31T11:27:24.352Z,32.10
2018-12-31T11:29:51.974Z,32.10
2018-12-31T11:32:19.634Z,32.30
2018-12-31T11:34:47.314Z,32.30
2018-12-31T11:37:15.010Z,32.50
2018-12-31T11:39:42.643Z,32.50
2018-12-31T11:42:10.247Z,32.50
2018-12-31T11:44:37.892Z,32.70
2018-12-31T11:47:05.500Z,32.60
2018-12-31T11:49:33.194Z,32.70
2018-12-31T11:52:00.835Z,33.30
2018-12-31T11:54:28.414Z,32.30
2018-12-31T11:56:56.020Z,31.90
2018-12-31T11:59:23.712Z,32.10
2018-12-31T12:01:51.423Z,32.30
2018-12-31T12:04:19.124Z,32.60
2018-12-31T12:06:46.808Z,32.60
2018-12-31T12:09:14.486Z,32.70
2018-12-31T12:11:42.170Z,32.90
2018-12-31T12:14:09.983Z,33.00
2018-12-31T12:16:37.776Z,33.20
2018-12-31T12:19:05.893Z,33.00
2018-12-31T12:21:33.547Z,33.10
2018-12-31T12:24:01.165Z,33.20
2018-12-31T12:26:28.797Z,33.30
2018-12-31T12:28:56.475Z,33.50
2018-12-31T12:31:24.159Z,33.50
2018-12-31T12:33:51.873Z,33.50
2018-12-31T12:36:19.504Z,33.40
2018-12-31T12:38:47.157Z,33.50
2018-12-31T12:41:14.839Z,33.50
2018-12-31T12:43:42.510Z,33.60
2018-12-31T12:46:10.485Z,34.20
2018-12-31T12:48:38.157Z,33.60
2018-12-31T12:51:05.800Z,33.50
2018-12-31T12:53:33.469Z,33.60
2018-12-31T12:56:01.366Z,33.60
2018-12-31T12:58:29.021Z,33.60
2018-12-31T13:00:56.746Z,33.50
2018-12-31T13:03:24.572Z,33.50
2018-12-31T13:05:52.264Z,33.50
2018-12-31T13:08:19.989Z,33.50
2018-12-31T13:10:47.651Z,33.60
2018-12-31T13:13:15.682Z,33.60
2018-12-31T13:15:43.450Z,33.50
2018-12-31T13:18:11.157Z,33.50
2018-12-31T13:20:38.885Z,33.50
2018-12-31T13:23:06.631Z,33.50
2018-12-31T13:25:34.363Z,33.50
2018-12-31T13:28:02.022Z,33.50
2018-12-31T13:30:29.701Z,33.50
2018-12-31T13:32:57.467Z,33.50
2018-12-31T13:35:25.167Z,33.50
2018-12-31T13:37:52.851Z,33.50
2018-12-31T13:40:20.897Z,33.50
2018-12-31T13:42:48.587Z,33.60
2018-12-31T13:45:16.266Z,33.40
2018-12-31T13:47:43.940Z,33.40
2018-12-31T13:50:11.686Z,32.90
2018-12-31T13:52:39.379Z,32.10
2018-12-31T13:55:07.106Z,31.40
2018-12-31T13:57:34.765Z,31.20
2018-12-31T14:00:03.870Z,30.70
2018-12-31T14:02:31.546Z,30.20
2018-12-31T14:04:59.147Z,29.80
2018-12-31T14:07:27.139Z,30.00
2018-12-31T14:09:54.843Z,29.70
2018-12-31T14:12:22.497Z,29.60
2018-12-31T14:14:50.181Z,29.40
2018-12-31T14:17:17.869Z,29.20
2018-12-31T14:19:45.891Z,29.30
2018-12-31T14:22:13.613Z,29.40
2018-12-31T14:24:41.274Z,29.30
2018-12-31T14:27:08.930Z,28.50
2018-12-31T14:29:36.699Z,27.80
2018-12-31T14:32:04.448Z,27.60
2018-12-31T14:34:32.178Z,27.40
2018-12-31T14:36:59.799Z,27.30
2018-12-31T14:39:27.489Z,28.10
2018-12-31T14:41:55.169Z,28.70
2018-12-31T14:44:22.946Z,28.20
2018-12-31T14:46:50.946Z,28.40
2018-12-31T14:49:18.681Z,28.60
2018-12-31T14:51:46.286Z,28.70
2018-12-31T14:54:13.935Z,29.50
2018-12-31T14:56:41.642Z,29.30
2018-12-31T14:59:09.283Z,29.20
2018-12-31T15:01:36.892Z,29.80
2018-12-31T15:04:04.603Z,29.70
2018-12-31T15:06:32.262Z,30.60
2018-12-31T15:08:59.972Z,31.60
2018-12-31T15:11:27.717Z,31.60
2018-12-31T15:13:55.692Z,32.00
2018-12-31T15:16:23.378Z,32.00
2018-12-31T15:18:51.182Z,32.30
2018-12-31T15:21:18.819Z,31.30
2018-12-31T15:23:46.545Z,31.70
2018-12-31T15:26:14.158Z,31.00
2018-12-31T15:28:41.786Z,31.70
2018-12-31T15:31:09.548Z,31.20
2018-12-31T15:33:37.187Z,30.50
2018-12-31T15:36:04.879Z,30.80
2018-12-31T15:38:32.617Z,30.70
2018-12-31T15:41:00.285Z,30.70
2018-12-31T15:43:27.944Z,31.10
2018-12-31T15:45:55.649Z,30.90
2018-12-31T15:48:23.264Z,31.50
2018-12-31T15:50:50.981Z,31.20
2018-12-31T15:53:18.694Z,31.50
2018-12-31T15:55:46.660Z,31.60
2018-12-31T15:58:14.424Z,30.40
2018-12-31T16:00:42.134Z,29.30
2018-12-31T16:03:09.822Z,33.00
2018-12-31T16:05:37.468Z,31.80
2018-12-31T16:08:05.147Z,37.50
2018-12-31T16:10:32.837Z,38.70
2018-12-31T16:13:00.530Z,35.60
2018-12-31T16:15:28.252Z,42.10
2018-12-31T16:17:55.868Z,44.60
2018-12-31T16:20:23.552Z,39.80
2018-12-31T16:22:51.579Z,46.30
2018-12-31T16:25:19.268Z,39.40
2018-12-31T16:27:46.943Z,36.60
2018-12-31T16:30:14.736Z,31.50
2018-12-31T16:32:42.436Z,36.70
2018-12-31T16:35:10.122Z,46.30
2018-12-31T16:37:37.870Z,32.40
2018-12-31T16:40:05.949Z,31.60
2018-12-31T16:42:33.638Z,36.30
2018-12-31T16:45:01.372Z,32.10
2018-12-31T16:47:29.062Z,29.90
2018-12-31T16:49:56.768Z,29.10
2018-12-31T16:52:24.466Z,29.00
2018-12-31T16:54:52.124Z,29.40
2018-12-31T16:57:19.820Z,29.00
2018-12-31T16:59:47.570Z,28.90
2018-12-31T17:02:15.268Z,28.90
2018-12-31T17:04:43.228Z,28.60
2018-12-31T17:07:10.974Z,28.90
2018-12-31T17:09:38.640Z,28.60
2018-12-31T17:12:06.313Z,36.90
2018-12-31T17:14:34.060Z,32.90
2018-12-31T17:17:01.714Z,30.50
2018-12-31T17:19:29.586Z,28.60
2018-12-31T17:21:57.309Z,28.40
2018-12-31T17:24:25.109Z,28.40
2018-12-31T17:26:52.708Z,28.30
2018-12-31T17:29:20.451Z,28.20
2018-12-31T17:31:54.529Z,28.10
2018-12-31T17:34:22.184Z,28.20
2018-12-31T17:36:49.942Z,28.20
2018-12-31T17:39:17.656Z,28.20
2018-12-31T17:41:45.331Z,28.20
2018-12-31T17:44:12.977Z,28.30
2018-12-31T17:46:40.602Z,27.10
2018-12-31T17:49:08.268Z,27.60
2018-12-31T17:51:35.977Z,27.00
2018-12-31T17:54:13.266Z,29.00
2018-12-31T17:56:41.243Z,29.10
2018-12-31T17:59:08.904Z,29.60
2018-12-31T18:01:36.480Z,29.40
2018-12-31T18:04:04.201Z,29.60
2018-12-31T18:06:31.942Z,30.20
2018-12-31T18:08:59.633Z,30.20
2018-12-31T18:11:31.605Z,30.00
2018-12-31T18:14:03.245Z,30.10
2018-12-31T18:16:30.893Z,31.00
2018-12-31T18:18:58.587Z,30.50
2018-12-31T18:21:26.311Z,30.70
2018-12-31T18:23:54.193Z,31.90
2018-12-31T18:26:33.165Z,31.10
2018-12-31T18:29:01.432Z,32.30
2018-12-31T18:31:29.099Z,33.20
2018-12-31T18:33:56.973Z,35.10
2018-12-31T18:36:24.760Z,34.40
2018-12-31T18:38:52.477Z,33.90
2018-12-31T18:41:22.625Z,33.40
2018-12-31T18:43:50.506Z,32.70
2018-12-31T18:46:18.269Z,32.70
2018-12-31T18:48:46.256Z,32.60
2018-12-31T18:51:14.015Z,32.10
2018-12-31T18:53:41.732Z,32.20
2018-12-31T18:56:09.680Z,32.20
2018-12-31T18:58:38.297Z,32.20
2018-12-31T19:03:56.684Z,32.40
2018-12-31T19:06:24.460Z,32.40
2018-12-31T19:08:52.222Z,32.40
2018-12-31T19:11:20.106Z,32.40
2018-12-31T19:13:55.820Z,32.60
2018-12-31T19:16:44.782Z,32.60
2018-12-31T19:19:12.586Z,32.70
2018-12-31T19:21:40.414Z,32.60
2018-12-31T19:24:08.210Z,32.60
2018-12-31T19:26:35.932Z,32.70
2018-12-31T19:29:03.636Z,32.40
2018-12-31T19:31:36.108Z,32.80
2018-12-31T19:34:05.260Z,32.90
2018-12-31T19:36:32.939Z,32.80
2018-12-31T19:39:00.546Z,32.80
2018-12-31T19:41:28.323Z,32.80
2018-12-31T19:43:56.029Z,33.00
2018-12-31T19:46:31.986Z,33.00
2018-12-31T19:49:00.104Z,33.00
2018-12-31T19:51:28.360Z,33.00
2018-12-31T19:53:56.060Z,33.00
2018-12-31T19:56:23.860Z,33.00
2018-12-31T19:58:51.494Z,33.00
2018-12-31T20:01:19.102Z,33.00
2018-12-31T20:03:53.164Z,33.10
2018-12-31T20:06:27.010Z,33.10
2018-12-31T20:08:54.786Z,33.10
2018-12-31T20:11:22.931Z,33.10
2018-12-31T20:13:50.626Z,33.10
2018-12-31T20:16:18.477Z,33.10
2018-12-31T20:18:46.225Z,34.90
2018-12-31T20:21:14.520Z,37.70
2018-12-31T20:23:44.893Z,38.90
2018-12-31T20:26:12.587Z,38.90
2018-12-31T20:28:40.383Z,38.20
2018-12-31T20:31:08.141Z,37.00
2018-12-31T20:33:37.032Z,36.90
2018-12-31T20:36:09.052Z,35.60
2018-12-31T20:38:40.002Z,35.80
2018-12-31T20:41:12.880Z,35.60
2018-12-31T20:43:40.089Z,35.60
2018-12-31T20:46:07.783Z,35.50
2018-12-31T20:48:35.441Z,35.40
2018-12-31T20:51:03.313Z,35.50
2018-12-31T20:53:45.974Z,35.40
2018-12-31T20:56:19.101Z,35.20
2018-12-31T20:58:46.983Z,35.20
2018-12-31T21:01:14.697Z,35.10
2018-12-31T21:03:42.796Z,35.10
2018-12-31T21:06:10.493Z,34.80
2018-12-31T21:08:38.484Z,34.80
2018-12-31T21:11:15.639Z,34.80
2018-12-31T21:13:48.177Z,34.90
2018-12-31T21:16:18.546Z,34.70
2018-12-31T21:18:47.061Z,35.00
2018-12-31T21:21:16.633Z,35.00
2018-12-31T21:23:44.564Z,34.90
2018-12-31T21:26:12.322Z,35.00
2018-12-31T21:28:42.641Z,35.10
2018-12-31T21:31:14.082Z,35.10
2018-12-31T21:33:44.092Z,35.30
2018-12-31T21:36:12.323Z,35.20
2018-12-31T21:38:40.241Z,35.30
2018-12-31T21:41:08.302Z,35.90
2018-12-31T21:43:36.120Z,35.40
2018-12-31T21:46:04.019Z,35.20
2018-12-31T21:48:31.670Z,35.30
2018-12-31T21:51:01.106Z,35.30
2018-12-31T21:53:29.252Z,35.10
2018-12-31T21:55:56.870Z,35.50
2018-12-31T21:58:24.471Z,35.50
2018-12-31T22:00:52.232Z,35.60
2018-12-31T22:03:19.902Z,35.70
2018-12-31T22:05:51.787Z,35.60
2018-12-31T22:08:19.999Z,35.90
2018-12-31T22:10:47.692Z,35.70
2018-12-31T22:13:15.382Z,35.90
2018-12-31T22:15:43.116Z,35.80
2018-12-31T22:18:10.728Z,36.00
2018-12-31T22:20:38.406Z,36.10
2018-12-31T22:23:06.706Z,36.20
2018-12-31T22:25:34.917Z,36.30
2018-12-31T22:28:02.574Z,36.30
2018-12-31T22:30:30.341Z,36.30
2018-12-31T22:32:58.020Z,36.30
2018-12-31T22:35:25.706Z,36.30
2018-12-31T22:37:56.733Z,36.30
2018-12-31T22:40:26.572Z,36.30
2018-12-31T22:42:54.357Z,36.40
2018-12-31T22:45:22.334Z,36.20
2018-12-31T22:47:50.033Z,36.40
2018-12-31T22:50:17.650Z,36.30
2018-12-31T22:52:45.394Z,36.30
2018-12-31T22:55:13.652Z,36.40
2018-12-31T22:57:43.908Z,36.40
2018-12-31T23:00:11.632Z,36.30
2018-12-31T23:02:39.556Z,36.40
2018-12-31T23:05:07.775Z,36.90
2018-12-31T23:07:35.525Z,36.40
2018-12-31T23:10:03.819Z,33.30
2018-12-31T23:12:32.022Z,29.80
2018-12-31T23:14:59.650Z,27.90
2018-12-31T23:17:27.374Z,27.70
2018-12-31T23:19:55.051Z,27.60
2018-12-31T23:22:22.921Z,27.50
2018-12-31T23:24:50.624Z,28.10
2018-12-31T23:44:28.154Z,30.90
2018-12-31T23:46:55.807Z,31.00
2018-12-31T23:49:23.565Z,31.00
2018-12-31T23:51:51.338Z,31.40
2018-12-31T23:54:19.939Z,30.90
2018-12-31T23:56:48.328Z,31.00
2018-12-31T23:59:21.883Z,31.10
